createdAt,value
2023-01-18T00:02:42.596Z,19.90
2023-01-18T00:12:42.626Z,19.20
2023-01-18T00:22:42.635Z,20.60
2023-01-18T00:32:42.609Z,24.40
2023-01-18T00:42:42.638Z,22.10
2023-01-18T00:52:42.607Z,23.60
2023-01-18T01:02:42.704Z,24.00
2023-01-18T01:12:42.643Z,22.50
2023-01-18T01:22:42.627Z,22.80
2023-01-18T01:32:42.667Z,22.30
2023-01-18T01:42:42.640Z,21.70
2023-01-18T01:52:42.622Z,19.50
2023-01-18T02:02:42.703Z,27.00
2023-01-18T02:12:42.681Z,19.20
2023-01-18T02:32:42.662Z,19.20
2023-01-18T02:42:42.662Z,20.30
2023-01-18T02:52:42.759Z,21.90
2023-01-18T03:02:42.731Z,21.10
2023-01-18T03:12:42.688Z,22.10
2023-01-18T03:22:42.697Z,25.60
2023-01-18T03:32:42.683Z,23.60
2023-01-18T03:42:42.670Z,23.00
2023-01-18T03:52:42.662Z,21.80
2023-01-18T04:02:42.719Z,22.90
2023-01-18T04:12:42.725Z,22.80
2023-01-18T04:22:42.709Z,21.70
2023-01-18T04:32:42.754Z,20.10
2023-01-18T04:42:42.670Z,21.40
2023-01-18T04:52:42.751Z,26.00
2023-01-18T05:02:42.755Z,21.90
2023-01-18T05:12:42.718Z,20.60
2023-01-18T05:22:42.699Z,23.30
2023-01-18T05:32:42.695Z,20.80
2023-01-18T05:42:42.750Z,19.80
2023-01-18T05:52:42.728Z,20.90
2023-01-18T06:02:42.776Z,20.90
2023-01-18T06:12:42.726Z,22.90
2023-01-18T06:22:42.740Z,23.80
2023-01-18T06:32:42.856Z,23.40
2023-01-18T06:42:42.720Z,22.90
2023-01-18T06:52:42.722Z,24.50
2023-01-18T07:02:42.756Z,25.10
2023-01-18T07:12:42.767Z,24.20
2023-01-18T07:22:42.739Z,24.10
2023-01-18T07:32:42.768Z,26.60
2023-01-18T07:42:42.828Z,22.70
2023-01-18T07:52:42.823Z,26.60
2023-01-18T08:02:42.853Z,26.40
2023-01-18T08:12:42.806Z,26.50
2023-01-18T08:22:42.749Z,25.10
2023-01-18T08:32:42.789Z,27.10
2023-01-18T08:42:42.754Z,27.20
2023-01-18T08:52:42.797Z,26.30
2023-01-18T09:02:42.763Z,28.60
2023-01-18T09:12:42.809Z,27.30
2023-01-18T09:22:42.786Z,26.20
2023-01-18T09:32:42.809Z,25.60
2023-01-18T09:42:42.774Z,27.30
2023-01-18T09:52:42.796Z,26.60
2023-01-18T10:02:42.901Z,27.20
2023-01-18T10:12:42.815Z,24.10
2023-01-18T10:22:42.807Z,24.30
2023-01-18T10:32:42.822Z,26.40
2023-01-18T10:42:42.788Z,24.90
2023-01-18T10:52:42.790Z,25.30
2023-01-18T11:02:42.899Z,23.80
2023-01-18T11:12:42.803Z,24.90
2023-01-18T11:22:42.827Z,27.30
2023-01-18T11:32:42.835Z,26.30
2023-01-18T11:42:42.809Z,26.00
2023-01-18T11:52:42.813Z,27.20
2023-01-18T12:02:42.829Z,25.70
2023-01-18T12:12:42.900Z,28.00
2023-01-18T12:22:42.849Z,28.70
2023-01-18T12:32:42.827Z,28.60
2023-01-18T12:42:42.900Z,29.40
2023-01-18T12:52:42.827Z,30.30
2023-01-18T13:02:42.878Z,29.30
2023-01-18T13:12:42.851Z,29.80
2023-01-18T13:22:42.841Z,29.80
2023-01-18T13:32:42.864Z,29.10
2023-01-18T13:42:42.890Z,31.40
2023-01-18T13:52:42.899Z,29.90
2023-01-18T14:02:43.242Z,31.50
2023-01-18T14:12:42.854Z,33.30
2023-01-18T14:22:42.853Z,32.80
2023-01-18T14:32:42.888Z,30.80
2023-01-18T14:42:42.898Z,34.00
2023-01-18T14:52:42.900Z,33.20
2023-01-18T15:02:42.968Z,32.10
2023-01-18T15:12:42.897Z,33.70
2023-01-18T15:22:42.933Z,29.50
2023-01-18T15:32:42.901Z,30.20
2023-01-18T15:42:42.962Z,30.90
2023-01-18T15:52:44.925Z,31.50
2023-01-18T16:02:42.951Z,31.00
2023-01-18T16:12:42.975Z,33.00
2023-01-18T16:22:42.902Z,33.40
2023-01-18T16:32:42.923Z,29.40
2023-01-18T16:42:42.913Z,34.50
2023-01-18T16:52:43.122Z,32.40
2023-01-18T17:02:42.942Z,31.30
2023-01-18T17:12:42.942Z,29.70
2023-01-18T17:22:42.919Z,28.10
2023-01-18T17:32:42.980Z,25.40
2023-01-18T17:42:42.967Z,30.70
2023-01-18T17:52:42.968Z,31.90
2023-01-18T18:02:42.967Z,31.50
2023-01-18T18:12:42.973Z,30.30
2023-01-18T18:22:42.967Z,32.00
2023-01-18T18:32:43.090Z,32.70
2023-01-18T18:42:45.278Z,31.10
2023-01-18T18:52:42.992Z,35.10
2023-01-18T19:12:43.032Z,37.80
2023-01-18T19:22:43.016Z,30.80
2023-01-18T19:32:42.965Z,31.60
2023-01-18T19:42:43.050Z,30.50
2023-01-18T19:52:43.034Z,33.50
2023-01-18T20:02:43.149Z,32.30
2023-01-18T20:12:43.020Z,32.90
2023-01-18T20:22:43.143Z,27.30
2023-01-18T20:32:43.154Z,31.00
2023-01-18T20:42:43.119Z,27.40
2023-01-18T20:52:42.986Z,31.00
2023-01-18T21:02:43.203Z,30.00
2023-01-18T21:12:42.993Z,28.80
2023-01-18T21:22:42.999Z,27.90
2023-01-18T21:32:43.027Z,22.70
2023-01-18T21:42:43.026Z,26.40
2023-01-18T21:52:43.184Z,26.60
2023-01-18T22:02:43.054Z,27.50
2023-01-18T22:12:43.107Z,25.80
2023-01-18T22:22:43.039Z,28.50
2023-01-18T22:32:43.054Z,29.30
2023-01-18T22:42:43.045Z,28.50
2023-01-18T22:52:43.066Z,23.70
2023-01-18T23:02:43.120Z,26.70
2023-01-18T23:12:43.119Z,30.80
2023-01-18T23:22:43.051Z,30.00
2023-01-18T23:32:43.062Z,28.10
2023-01-18T23:42:43.037Z,28.20
2023-01-18T23:52:43.064Z,26.10
